sensor_id;sensor_type;location;lat;lon;timestamp;P1;durP1;ratioP1;P2;durP2;ratioP2
16330;SDS011;8275;48.206;16.340;2023-08-01T00:01:50;3.38;;;3.08;;
16330;SDS011;8275;48.206;16.340;2023-08-01T00:04:18;5.07;;;3.00;;
16330;SDS011;8275;48.206;16.340;2023-08-01T00:06:47;3.67;;;3.13;;
16330;SDS011;8275;48.206;16.340;2023-08-01T00:09:15;3.58;;;3.28;;
16330;SDS011;8275;48.206;16.340;2023-08-01T00:11:45;4.18;;;3.33;;
16330;SDS011;8275;48.206;16.340;2023-08-01T00:14:14;3.10;;;2.80;;
16330;SDS011;8275;48.206;16.340;2023-08-01T00:16:43;3.42;;;3.13;;
16330;SDS011;8275;48.206;16.340;2023-08-01T00:19:12;3.38;;;2.97;;
16330;SDS011;8275;48.206;16.340;2023-08-01T00:21:42;3.17;;;2.88;;
16330;SDS011;8275;48.206;16.340;2023-08-01T00:24:12;3.63;;;3.10;;
16330;SDS011;8275;48.206;16.340;2023-08-01T00:26:41;3.40;;;3.20;;
16330;SDS011;8275;48.206;16.340;2023-08-01T00:29:11;3.45;;;2.67;;
16330;SDS011;8275;48.206;16.340;2023-08-01T00:31:40;3.47;;;2.67;;
16330;SDS011;8275;48.206;16.340;2023-08-01T00:34:09;2.95;;;2.60;;
16330;SDS011;8275;48.206;16.340;2023-08-01T00:36:38;6.22;;;3.00;;
16330;SDS011;8275;48.206;16.340;2023-08-01T00:39:07;3.05;;;2.70;;
16330;SDS011;8275;48.206;16.340;2023-08-01T00:41:36;2.78;;;2.58;;
16330;SDS011;8275;48.206;16.340;2023-08-01T00:44:04;5.68;;;3.47;;
16330;SDS011;8275;48.206;16.340;2023-08-01T00:46:37;3.80;;;2.90;;
16330;SDS011;8275;48.206;16.340;2023-08-01T00:49:07;2.53;;;2.33;;
16330;SDS011;8275;48.206;16.340;2023-08-01T00:51:38;2.80;;;2.60;;
16330;SDS011;8275;48.206;16.340;2023-08-01T00:54:08;3.05;;;2.85;;
16330;SDS011;8275;48.206;16.340;2023-08-01T00:56:37;3.17;;;2.88;;
16330;SDS011;8275;48.206;16.340;2023-08-01T00:59:08;3.30;;;2.95;;
16330;SDS011;8275;48.206;16.340;2023-08-01T01:01:38;4.30;;;3.13;;
16330;SDS011;8275;48.206;16.340;2023-08-01T01:04:08;4.00;;;2.67;;
16330;SDS011;8275;48.206;16.340;2023-08-01T01:06:41;3.35;;;3.05;;
16330;SDS011;8275;48.206;16.340;2023-08-01T01:09:16;6.82;;;2.40;;
16330;SDS011;8275;48.206;16.340;2023-08-01T01:11:44;3.53;;;2.90;;
16330;SDS011;8275;48.206;16.340;2023-08-01T01:14:14;3.40;;;2.60;;
16330;SDS011;8275;48.206;16.340;2023-08-01T01:16:44;2.97;;;2.55;;
16330;SDS011;8275;48.206;16.340;2023-08-01T01:19:12;3.38;;;3.08;;
16330;SDS011;8275;48.206;16.340;2023-08-01T01:21:43;3.35;;;3.00;;
16330;SDS011;8275;48.206;16.340;2023-08-01T01:24:13;10.30;;;2.65;;
16330;SDS011;8275;48.206;16.340;2023-08-01T01:26:43;3.72;;;3.15;;
16330;SDS011;8275;48.206;16.340;2023-08-01T01:29:13;2.90;;;2.72;;
16330;SDS011;8275;48.206;16.340;2023-08-01T01:31:42;4.70;;;2.60;;
16330;SDS011;8275;48.206;16.340;2023-08-01T01:34:12;3.08;;;2.88;;
16330;SDS011;8275;48.206;16.340;2023-08-01T01:36:42;4.53;;;2.85;;
16330;SDS011;8275;48.206;16.340;2023-08-01T01:39:11;3.25;;;2.70;;
16330;SDS011;8275;48.206;16.340;2023-08-01T01:41:39;4.20;;;2.63;;
16330;SDS011;8275;48.206;16.340;2023-08-01T01:44:08;5.97;;;3.00;;
16330;SDS011;8275;48.206;16.340;2023-08-01T01:46:37;3.17;;;2.47;;
16330;SDS011;8275;48.206;16.340;2023-08-01T01:49:06;2.45;;;2.28;;
16330;SDS011;8275;48.206;16.340;2023-08-01T01:51:34;4.35;;;2.78;;
16330;SDS011;8275;48.206;16.340;2023-08-01T01:54:04;2.97;;;2.70;;
16330;SDS011;8275;48.206;16.340;2023-08-01T01:56:32;2.03;;;1.92;;
16330;SDS011;8275;48.206;16.340;2023-08-01T01:59:02;2.72;;;2.53;;
16330;SDS011;8275;48.206;16.340;2023-08-01T02:01:31;5.78;;;2.65;;
16330;SDS011;8275;48.206;16.340;2023-08-01T02:03:59;3.03;;;2.80;;
16330;SDS011;8275;48.206;16.340;2023-08-01T02:06:27;3.63;;;2.38;;
16330;SDS011;8275;48.206;16.340;2023-08-01T02:08:57;3.30;;;3.00;;
16330;SDS011;8275;48.206;16.340;2023-08-01T02:11:27;3.03;;;2.72;;
16330;SDS011;8275;48.206;16.340;2023-08-01T02:13:56;2.83;;;2.40;;
16330;SDS011;8275;48.206;16.340;2023-08-01T02:16:24;2.40;;;2.20;;
16330;SDS011;8275;48.206;16.340;2023-08-01T02:18:53;2.72;;;2.53;;
16330;SDS011;8275;48.206;16.340;2023-08-01T02:21:21;5.22;;;2.80;;
16330;SDS011;8275;48.206;16.340;2023-08-01T02:23:50;2.88;;;2.45;;
16330;SDS011;8275;48.206;16.340;2023-08-01T02:26:18;4.72;;;3.17;;
16330;SDS011;8275;48.206;16.340;2023-08-01T02:28:50;3.10;;;2.78;;
16330;SDS011;8275;48.206;16.340;2023-08-01T02:31:18;3.58;;;2.53;;
16330;SDS011;8275;48.206;16.340;2023-08-01T02:33:47;2.72;;;2.47;;
16330;SDS011;8275;48.206;16.340;2023-08-01T02:36:16;2.72;;;2.47;;
16330;SDS011;8275;48.206;16.340;2023-08-01T02:38:44;2.45;;;2.25;;
16330;SDS011;8275;48.206;16.340;2023-08-01T02:41:13;3.20;;;2.72;;
16330;SDS011;8275;48.206;16.340;2023-08-01T02:43:41;2.92;;;2.58;;
16330;SDS011;8275;48.206;16.340;2023-08-01T02:46:11;2.78;;;2.55;;
16330;SDS011;8275;48.206;16.340;2023-08-01T02:48:40;2.90;;;2.28;;
16330;SDS011;8275;48.206;16.340;2023-08-01T02:51:09;4.68;;;3.00;;
16330;SDS011;8275;48.206;16.340;2023-08-01T02:53:37;2.42;;;2.25;;
16330;SDS011;8275;48.206;16.340;2023-08-01T02:56:06;3.20;;;2.60;;
16330;SDS011;8275;48.206;16.340;2023-08-01T02:58:36;2.60;;;2.42;;
16330;SDS011;8275;48.206;16.340;2023-08-01T03:01:06;5.22;;;2.65;;
16330;SDS011;8275;48.206;16.340;2023-08-01T03:03:37;3.25;;;2.80;;
16330;SDS011;8275;48.206;16.340;2023-08-01T03:06:06;2.63;;;2.25;;
16330;SDS011;8275;48.206;16.340;2023-08-01T03:08:35;2.72;;;2.53;;
16330;SDS011;8275;48.206;16.340;2023-08-01T03:11:04;2.35;;;2.15;;
16330;SDS011;8275;48.206;16.340;2023-08-01T03:13:33;5.28;;;2.45;;
16330;SDS011;8275;48.206;16.340;2023-08-01T03:16:02;3.92;;;2.65;;
16330;SDS011;8275;48.206;16.340;2023-08-01T03:18:31;3.33;;;3.10;;
16330;SDS011;8275;48.206;16.340;2023-08-01T03:21:01;2.95;;;2.72;;
16330;SDS011;8275;48.206;16.340;2023-08-01T03:23:30;2.72;;;2.53;;
16330;SDS011;8275;48.206;16.340;2023-08-01T03:25:58;3.45;;;2.25;;
16330;SDS011;8275;48.206;16.340;2023-08-01T03:28:27;2.53;;;2.33;;
16330;SDS011;8275;48.206;16.340;2023-08-01T03:30:56;2.75;;;2.45;;
16330;SDS011;8275;48.206;16.340;2023-08-01T03:33:24;2.88;;;2.60;;
16330;SDS011;8275;48.206;16.340;2023-08-01T03:35:53;3.75;;;2.50;;
16330;SDS011;8275;48.206;16.340;2023-08-01T03:38:23;3.33;;;2.70;;
16330;SDS011;8275;48.206;16.340;2023-08-01T03:40:51;3.83;;;2.08;;
16330;SDS011;8275;48.206;16.340;2023-08-01T03:43:20;4.70;;;2.58;;
16330;SDS011;8275;48.206;16.340;2023-08-01T03:45:51;2.75;;;2.55;;
16330;SDS011;8275;48.206;16.340;2023-08-01T03:48:19;5.47;;;2.70;;
16330;SDS011;8275;48.206;16.340;2023-08-01T03:50:48;3.53;;;2.33;;
16330;SDS011;8275;48.206;16.340;2023-08-01T03:53:17;2.92;;;2.55;;
16330;SDS011;8275;48.206;16.340;2023-08-01T03:55:47;3.47;;;3.17;;
16330;SDS011;8275;48.206;16.340;2023-08-01T03:58:15;3.17;;;2.80;;
16330;SDS011;8275;48.206;16.340;2023-08-01T04:00:44;3.97;;;2.75;;
16330;SDS011;8275;48.206;16.340;2023-08-01T04:03:12;4.32;;;2.97;;
16330;SDS011;8275;48.206;16.340;2023-08-01T04:05:44;4.82;;;2.85;;
16330;SDS011;8275;48.206;16.340;2023-08-01T04:08:12;3.30;;;3.10;;
16330;SDS011;8275;48.206;16.340;2023-08-01T04:10:41;2.92;;;2.63;;
16330;SDS011;8275;48.206;16.340;2023-08-01T04:13:11;3.53;;;3.22;;
16330;SDS011;8275;48.206;16.340;2023-08-01T04:15:39;3.28;;;2.78;;
16330;SDS011;8275;48.206;16.340;2023-08-01T04:18:08;4.75;;;2.85;;
16330;SDS011;8275;48.206;16.340;2023-08-01T04:20:36;4.50;;;3.88;;
16330;SDS011;8275;48.206;16.340;2023-08-01T04:23:05;8.63;;;2.88;;
16330;SDS011;8275;48.206;16.340;2023-08-01T04:25:33;4.20;;;2.78;;
16330;SDS011;8275;48.206;16.340;2023-08-01T04:28:01;4.53;;;3.67;;
16330;SDS011;8275;48.206;16.340;2023-08-01T04:30:31;5.55;;;3.58;;
16330;SDS011;8275;48.206;16.340;2023-08-01T04:33:00;6.68;;;4.07;;
16330;SDS011;8275;48.206;16.340;2023-08-01T04:35:29;12.27;;;4.65;;
16330;SDS011;8275;48.206;16.340;2023-08-01T04:37:57;4.50;;;3.45;;
16330;SDS011;8275;48.206;16.340;2023-08-01T04:40:26;4.72;;;3.03;;
16330;SDS011;8275;48.206;16.340;2023-08-01T04:42:54;4.38;;;2.72;;
16330;SDS011;8275;48.206;16.340;2023-08-01T04:45:23;3.88;;;3.55;;
16330;SDS011;8275;48.206;16.340;2023-08-01T04:47:53;4.25;;;3.83;;
16330;SDS011;8275;48.206;16.340;2023-08-01T04:50:21;4.50;;;3.45;;
16330;SDS011;8275;48.206;16.340;2023-08-01T04:52:50;5.88;;;4.15;;
16330;SDS011;8275;48.206;16.340;2023-08-01T04:55:18;5.80;;;4.10;;
16330;SDS011;8275;48.206;16.340;2023-08-01T04:57:47;3.95;;;3.58;;
16330;SDS011;8275;48.206;16.340;2023-08-01T05:00:16;4.25;;;3.95;;
16330;SDS011;8275;48.206;16.340;2023-08-01T05:02:45;5.47;;;4.57;;
16330;SDS011;8275;48.206;16.340;2023-08-01T05:05:15;6.07;;;5.03;;
16330;SDS011;8275;48.206;16.340;2023-08-01T05:07:44;10.70;;;3.95;;
16330;SDS011;8275;48.206;16.340;2023-08-01T05:10:13;4.03;;;3.55;;
16330;SDS011;8275;48.206;16.340;2023-08-01T05:12:43;4.43;;;3.90;;
16330;SDS011;8275;48.206;16.340;2023-08-01T05:15:11;4.47;;;3.70;;
16330;SDS011;8275;48.206;16.340;2023-08-01T05:17:40;4.13;;;3.72;;
16330;SDS011;8275;48.206;16.340;2023-08-01T05:20:09;4.68;;;3.88;;
16330;SDS011;8275;48.206;16.340;2023-08-01T05:22:40;4.63;;;3.55;;
16330;SDS011;8275;48.206;16.340;2023-08-01T05:25:08;5.20;;;4.22;;
16330;SDS011;8275;48.206;16.340;2023-08-01T05:27:37;9.95;;;4.05;;
16330;SDS011;8275;48.206;16.340;2023-08-01T05:30:06;6.25;;;4.97;;
16330;SDS011;8275;48.206;16.340;2023-08-01T05:32:36;5.68;;;4.25;;
16330;SDS011;8275;48.206;16.340;2023-08-01T05:35:06;7.88;;;4.38;;
16330;SDS011;8275;48.206;16.340;2023-08-01T05:37:36;5.15;;;4.25;;
16330;SDS011;8275;48.206;16.340;2023-08-01T05:40:06;5.93;;;4.18;;
16330;SDS011;8275;48.206;16.340;2023-08-01T05:42:36;6.38;;;4.45;;
16330;SDS011;8275;48.206;16.340;2023-08-01T05:45:05;6.28;;;4.65;;
16330;SDS011;8275;48.206;16.340;2023-08-01T05:47:37;7.07;;;5.38;;
16330;SDS011;8275;48.206;16.340;2023-08-01T05:50:07;6.95;;;4.45;;
16330;SDS011;8275;48.206;16.340;2023-08-01T05:52:37;9.73;;;4.55;;
16330;SDS011;8275;48.206;16.340;2023-08-01T05:55:07;4.55;;;3.47;;
16330;SDS011;8275;48.206;16.340;2023-08-01T05:57:36;5.53;;;3.65;;
16330;SDS011;8275;48.206;16.340;2023-08-01T06:00:05;4.80;;;4.30;;
16330;SDS011;8275;48.206;16.340;2023-08-01T06:02:35;5.95;;;5.13;;
16330;SDS011;8275;48.206;16.340;2023-08-01T06:05:05;6.35;;;4.35;;
16330;SDS011;8275;48.206;16.340;2023-08-01T06:07:34;4.72;;;4.18;;
16330;SDS011;8275;48.206;16.340;2023-08-01T06:10:03;7.68;;;5.18;;
16330;SDS011;8275;48.206;16.340;2023-08-01T06:12:33;4.75;;;3.65;;
16330;SDS011;8275;48.206;16.340;2023-08-01T06:15:03;5.10;;;4.47;;
16330;SDS011;8275;48.206;16.340;2023-08-01T06:17:32;5.47;;;4.40;;
16330;SDS011;8275;48.206;16.340;2023-08-01T06:20:01;4.75;;;4.35;;
16330;SDS011;8275;48.206;16.340;2023-08-01T06:22:31;5.55;;;4.80;;
16330;SDS011;8275;48.206;16.340;2023-08-01T06:25:00;7.82;;;4.28;;
16330;SDS011;8275;48.206;16.340;2023-08-01T06:27:28;5.53;;;4.90;;
16330;SDS011;8275;48.206;16.340;2023-08-01T06:29:58;3.65;;;3.35;;
16330;SDS011;8275;48.206;16.340;2023-08-01T06:32:26;4.35;;;3.95;;
16330;SDS011;8275;48.206;16.340;2023-08-01T06:34:55;5.35;;;4.72;;
16330;SDS011;8275;48.206;16.340;2023-08-01T06:37:24;7.72;;;4.15;;
16330;SDS011;8275;48.206;16.340;2023-08-01T06:39:54;6.00;;;5.03;;
16330;SDS011;8275;48.206;16.340;2023-08-01T06:42:22;6.70;;;4.38;;
16330;SDS011;8275;48.206;16.340;2023-08-01T06:44:51;7.13;;;4.80;;
16330;SDS011;8275;48.206;16.340;2023-08-01T06:47:21;9.43;;;4.80;;
16330;SDS011;8275;48.206;16.340;2023-08-01T06:49:49;9.65;;;5.03;;
16330;SDS011;8275;48.206;16.340;2023-08-01T06:52:18;5.95;;;5.35;;
16330;SDS011;8275;48.206;16.340;2023-08-01T06:54:46;6.10;;;5.55;;
16330;SDS011;8275;48.206;16.340;2023-08-01T06:57:15;7.22;;;5.97;;
16330;SDS011;8275;48.206;16.340;2023-08-01T06:59:43;6.95;;;5.00;;
16330;SDS011;8275;48.206;16.340;2023-08-01T07:02:12;9.55;;;5.78;;
16330;SDS011;8275;48.206;16.340;2023-08-01T07:04:43;7.03;;;5.55;;
16330;SDS011;8275;48.206;16.340;2023-08-01T07:07:11;6.13;;;4.65;;
16330;SDS011;8275;48.206;16.340;2023-08-01T07:09:40;6.13;;;4.97;;
16330;SDS011;8275;48.206;16.340;2023-08-01T07:12:08;6.22;;;4.63;;
16330;SDS011;8275;48.206;16.340;2023-08-01T07:14:37;10.00;;;4.82;;
16330;SDS011;8275;48.206;16.340;2023-08-01T07:17:06;6.88;;;4.07;;
16330;SDS011;8275;48.206;16.340;2023-08-01T07:19:34;6.15;;;4.68;;
16330;SDS011;8275;48.206;16.340;2023-08-01T07:22:04;6.18;;;4.05;;
16330;SDS011;8275;48.206;16.340;2023-08-01T07:24:33;8.57;;;4.32;;
16330;SDS011;8275;48.206;16.340;2023-08-01T07:27:02;7.25;;;4.40;;
16330;SDS011;8275;48.206;16.340;2023-08-01T07:29:31;5.65;;;4.80;;
16330;SDS011;8275;48.206;16.340;2023-08-01T07:32:00;13.75;;;5.35;;
16330;SDS011;8275;48.206;16.340;2023-08-01T07:34:28;6.22;;;4.30;;
16330;SDS011;8275;48.206;16.340;2023-08-01T07:36:57;5.53;;;4.97;;
16330;SDS011;8275;48.206;16.340;2023-08-01T07:39:27;5.30;;;3.70;;
16330;SDS011;8275;48.206;16.340;2023-08-01T07:41:55;4.20;;;3.80;;
16330;SDS011;8275;48.206;16.340;2023-08-01T07:44:24;4.82;;;3.80;;
16330;SDS011;8275;48.206;16.340;2023-08-01T07:46:52;4.20;;;3.75;;
16330;SDS011;8275;48.206;16.340;2023-08-01T07:49:21;5.18;;;4.07;;
16330;SDS011;8275;48.206;16.340;2023-08-01T07:51:49;6.57;;;5.10;;
16330;SDS011;8275;48.206;16.340;2023-08-01T07:54:18;8.32;;;4.10;;
16330;SDS011;8275;48.206;16.340;2023-08-01T07:56:48;8.30;;;5.20;;
16330;SDS011;8275;48.206;16.340;2023-08-01T07:59:17;7.80;;;4.95;;
16330;SDS011;8275;48.206;16.340;2023-08-01T08:01:45;11.52;;;5.15;;
16330;SDS011;8275;48.206;16.340;2023-08-01T08:04:14;7.18;;;5.85;;
16330;SDS011;8275;48.206;16.340;2023-08-01T08:06:43;5.82;;;5.32;;
16330;SDS011;8275;48.206;16.340;2023-08-01T08:09:11;6.00;;;5.45;;
16330;SDS011;8275;48.206;16.340;2023-08-01T08:11:40;7.28;;;4.93;;
16330;SDS011;8275;48.206;16.340;2023-08-01T08:14:10;6.85;;;5.03;;
16330;SDS011;8275;48.206;16.340;2023-08-01T08:16:41;12.13;;;4.65;;
16330;SDS011;8275;48.206;16.340;2023-08-01T08:19:10;4.57;;;4.07;;
16330;SDS011;8275;48.206;16.340;2023-08-01T08:21:38;5.90;;;4.68;;
16330;SDS011;8275;48.206;16.340;2023-08-01T08:24:07;5.63;;;4.95;;
16330;SDS011;8275;48.206;16.340;2023-08-01T08:26:36;9.48;;;5.22;;
16330;SDS011;8275;48.206;16.340;2023-08-01T08:29:07;6.43;;;5.80;;
16330;SDS011;8275;48.206;16.340;2023-08-01T08:31:36;7.55;;;6.82;;
16330;SDS011;8275;48.206;16.340;2023-08-01T08:34:05;7.47;;;4.88;;
16330;SDS011;8275;48.206;16.340;2023-08-01T08:36:34;11.70;;;4.25;;
16330;SDS011;8275;48.206;16.340;2023-08-01T08:39:02;9.15;;;5.18;;
16330;SDS011;8275;48.206;16.340;2023-08-01T08:41:32;4.85;;;4.45;;
16330;SDS011;8275;48.206;16.340;2023-08-01T08:44:07;4.30;;;3.83;;
16330;SDS011;8275;48.206;16.340;2023-08-01T08:46:40;6.60;;;4.30;;
16330;SDS011;8275;48.206;16.340;2023-08-01T08:49:11;4.72;;;4.32;;
16330;SDS011;8275;48.206;16.340;2023-08-01T08:51:42;4.43;;;4.03;;
16330;SDS011;8275;48.206;16.340;2023-08-01T08:54:12;7.40;;;4.20;;
16330;SDS011;8275;48.206;16.340;2023-08-01T08:56:43;9.65;;;4.13;;
16330;SDS011;8275;48.206;16.340;2023-08-01T08:59:12;4.75;;;4.13;;
16330;SDS011;8275;48.206;16.340;2023-08-01T09:01:42;6.35;;;4.22;;
16330;SDS011;8275;48.206;16.340;2023-08-01T09:04:12;6.70;;;4.65;;
16330;SDS011;8275;48.206;16.340;2023-08-01T09:06:42;8.23;;;4.90;;
16330;SDS011;8275;48.206;16.340;2023-08-01T09:09:17;4.78;;;4.18;;
16330;SDS011;8275;48.206;16.340;2023-08-01T09:11:46;6.45;;;4.50;;
16330;SDS011;8275;48.206;16.340;2023-08-01T09:14:17;4.78;;;3.90;;
16330;SDS011;8275;48.206;16.340;2023-08-01T09:16:48;6.75;;;4.40;;
16330;SDS011;8275;48.206;16.340;2023-08-01T09:19:17;7.03;;;5.72;;
16330;SDS011;8275;48.206;16.340;2023-08-01T09:21:47;7.30;;;3.90;;
16330;SDS011;8275;48.206;16.340;2023-08-01T09:24:18;4.35;;;3.70;;
16330;SDS011;8275;48.206;16.340;2023-08-01T09:26:48;11.32;;;3.25;;
16330;SDS011;8275;48.206;16.340;2023-08-01T09:29:17;6.10;;;3.65;;
16330;SDS011;8275;48.206;16.340;2023-08-01T09:31:49;6.18;;;3.80;;
16330;SDS011;8275;48.206;16.340;2023-08-01T09:34:18;5.22;;;4.20;;
16330;SDS011;8275;48.206;16.340;2023-08-01T09:36:49;3.55;;;3.25;;
16330;SDS011;8275;48.206;16.340;2023-08-01T09:39:19;6.22;;;4.38;;
16330;SDS011;8275;48.206;16.340;2023-08-01T09:41:54;5.53;;;3.75;;
16330;SDS011;8275;48.206;16.340;2023-08-01T09:44:25;6.15;;;4.40;;
16330;SDS011;8275;48.206;16.340;2023-08-01T09:46:56;5.18;;;3.78;;
16330;SDS011;8275;48.206;16.340;2023-08-01T09:49:27;3.35;;;3.03;;
16330;SDS011;8275;48.206;16.340;2023-08-01T09:51:56;3.92;;;3.63;;
16330;SDS011;8275;48.206;16.340;2023-08-01T09:54:25;4.72;;;4.32;;
16330;SDS011;8275;48.206;16.340;2023-08-01T09:56:54;4.25;;;3.83;;
16330;SDS011;8275;48.206;16.340;2023-08-01T09:59:24;4.47;;;3.15;;
16330;SDS011;8275;48.206;16.340;2023-08-01T10:01:53;4.15;;;3.72;;
16330;SDS011;8275;48.206;16.340;2023-08-01T10:04:26;4.25;;;3.80;;
16330;SDS011;8275;48.206;16.340;2023-08-01T10:06:58;4.70;;;4.18;;
16330;SDS011;8275;48.206;16.340;2023-08-01T10:09:30;4.07;;;3.67;;
16330;SDS011;8275;48.206;16.340;2023-08-01T10:12:00;7.35;;;3.25;;
16330;SDS011;8275;48.206;16.340;2023-08-01T10:14:29;4.30;;;3.53;;
16330;SDS011;8275;48.206;16.340;2023-08-01T10:17:01;6.95;;;4.95;;
16330;SDS011;8275;48.206;16.340;2023-08-01T10:19:31;8.05;;;4.78;;
16330;SDS011;8275;48.206;16.340;2023-08-01T10:22:00;4.40;;;3.88;;
16330;SDS011;8275;48.206;16.340;2023-08-01T10:24:30;7.18;;;3.78;;
16330;SDS011;8275;48.206;16.340;2023-08-01T10:27:08;5.63;;;4.63;;
16330;SDS011;8275;48.206;16.340;2023-08-01T10:29:41;5.63;;;3.50;;
16330;SDS011;8275;48.206;16.340;2023-08-01T10:32:11;5.65;;;4.22;;
16330;SDS011;8275;48.206;16.340;2023-08-01T10:34:40;3.70;;;3.40;;
16330;SDS011;8275;48.206;16.340;2023-08-01T10:37:19;6.05;;;3.15;;
16330;SDS011;8275;48.206;16.340;2023-08-01T10:39:55;3.97;;;3.47;;
16330;SDS011;8275;48.206;16.340;2023-08-01T10:42:25;5.60;;;4.15;;
16330;SDS011;8275;48.206;16.340;2023-08-01T10:45:05;6.63;;;4.70;;
16330;SDS011;8275;48.206;16.340;2023-08-01T10:47:37;5.30;;;4.00;;
16330;SDS011;8275;48.206;16.340;2023-08-01T10:50:13;3.50;;;3.20;;
16330;SDS011;8275;48.206;16.340;2023-08-01T10:52:42;7.38;;;3.97;;
16330;SDS011;8275;48.206;16.340;2023-08-01T10:55:12;3.85;;;3.55;;
16330;SDS011;8275;48.206;16.340;2023-08-01T10:57:46;3.50;;;3.20;;
16330;SDS011;8275;48.206;16.340;2023-08-01T11:00:16;8.45;;;4.38;;
16330;SDS011;8275;48.206;16.340;2023-08-01T11:02:50;6.63;;;5.22;;
16330;SDS011;8275;48.206;16.340;2023-08-01T11:05:18;5.00;;;4.50;;
16330;SDS011;8275;48.206;16.340;2023-08-01T11:07:53;4.63;;;4.22;;
16330;SDS011;8275;48.206;16.340;2023-08-01T11:10:24;5.70;;;4.40;;
16330;SDS011;8275;48.206;16.340;2023-08-01T11:12:54;4.70;;;3.75;;
16330;SDS011;8275;48.206;16.340;2023-08-01T11:15:23;6.15;;;3.70;;
16330;SDS011;8275;48.206;16.340;2023-08-01T11:17:54;5.15;;;4.65;;
16330;SDS011;8275;48.206;16.340;2023-08-01T11:20:24;4.43;;;4.03;;
16330;SDS011;8275;48.206;16.340;2023-08-01T11:22:55;6.88;;;4.72;;
16330;SDS011;8275;48.206;16.340;2023-08-01T11:25:32;4.53;;;3.92;;
16330;SDS011;8275;48.206;16.340;2023-08-01T11:28:05;7.47;;;4.70;;
16330;SDS011;8275;48.206;16.340;2023-08-01T11:30:36;6.90;;;5.15;;
16330;SDS011;8275;48.206;16.340;2023-08-01T11:33:17;7.05;;;5.20;;
16330;SDS011;8275;48.206;16.340;2023-08-01T11:35:49;6.13;;;5.53;;
16330;SDS011;8275;48.206;16.340;2023-08-01T11:38:20;6.82;;;5.07;;
16330;SDS011;8275;48.206;16.340;2023-08-01T11:40:52;10.48;;;6.25;;
16330;SDS011;8275;48.206;16.340;2023-08-01T11:43:20;6.72;;;6.07;;
16330;SDS011;8275;48.206;16.340;2023-08-01T11:45:49;11.05;;;9.13;;
16330;SDS011;8275;48.206;16.340;2023-08-01T11:48:20;8.52;;;5.47;;
16330;SDS011;8275;48.206;16.340;2023-08-01T11:50:56;6.80;;;5.60;;
16330;SDS011;8275;48.206;16.340;2023-08-01T11:53:25;6.35;;;5.70;;
16330;SDS011;8275;48.206;16.340;2023-08-01T11:55:55;6.53;;;5.93;;
16330;SDS011;8275;48.206;16.340;2023-08-01T11:58:27;7.97;;;5.57;;
16330;SDS011;8275;48.206;16.340;2023-08-01T12:01:06;7.05;;;5.50;;
16330;SDS011;8275;48.206;16.340;2023-08-01T12:03:45;8.27;;;6.18;;
16330;SDS011;8275;48.206;16.340;2023-08-01T12:06:16;11.43;;;5.03;;
16330;SDS011;8275;48.206;16.340;2023-08-01T12:08:48;11.43;;;6.07;;
16330;SDS011;8275;48.206;16.340;2023-08-01T12:11:19;6.40;;;4.78;;
16330;SDS011;8275;48.206;16.340;2023-08-01T12:13:59;4.75;;;4.35;;
16330;SDS011;8275;48.206;16.340;2023-08-01T12:16:30;5.25;;;4.15;;
16330;SDS011;8275;48.206;16.340;2023-08-01T12:19:00;6.68;;;5.68;;
16330;SDS011;8275;48.206;16.340;2023-08-01T12:21:29;4.65;;;4.25;;
16330;SDS011;8275;48.206;16.340;2023-08-01T12:23:59;4.47;;;4.07;;
16330;SDS011;8275;48.206;16.340;2023-08-01T12:26:28;6.78;;;5.22;;
16330;SDS011;8275;48.206;16.340;2023-08-01T12:28:56;4.68;;;3.92;;
16330;SDS011;8275;48.206;16.340;2023-08-01T12:31:25;5.40;;;4.30;;
16330;SDS011;8275;48.206;16.340;2023-08-01T12:33:54;7.85;;;4.93;;
16330;SDS011;8275;48.206;16.340;2023-08-01T12:36:24;5.35;;;3.83;;
16330;SDS011;8275;48.206;16.340;2023-08-01T12:38:52;4.53;;;3.95;;
16330;SDS011;8275;48.206;16.340;2023-08-01T12:41:21;4.57;;;4.20;;
16330;SDS011;8275;48.206;16.340;2023-08-01T12:43:50;5.43;;;4.07;;
16330;SDS011;8275;48.206;16.340;2023-08-01T12:46:18;7.47;;;3.72;;
16330;SDS011;8275;48.206;16.340;2023-08-01T12:48:47;4.30;;;3.60;;
16330;SDS011;8275;48.206;16.340;2023-08-01T12:51:15;7.00;;;3.80;;
16330;SDS011;8275;48.206;16.340;2023-08-01T12:53:45;5.13;;;4.60;;
16330;SDS011;8275;48.206;16.340;2023-08-01T12:56:14;9.50;;;8.52;;
16330;SDS011;8275;48.206;16.340;2023-08-01T12:58:42;6.18;;;5.15;;
16330;SDS011;8275;48.206;16.340;2023-08-01T13:01:12;5.38;;;4.45;;
16330;SDS011;8275;48.206;16.340;2023-08-01T13:03:41;5.95;;;4.40;;
16330;SDS011;8275;48.206;16.340;2023-08-01T13:06:10;5.07;;;4.50;;
16330;SDS011;8275;48.206;16.340;2023-08-01T13:08:39;5.35;;;4.60;;
16330;SDS011;8275;48.206;16.340;2023-08-01T13:11:13;8.93;;;5.88;;
16330;SDS011;8275;48.206;16.340;2023-08-01T13:13:42;6.00;;;5.40;;
16330;SDS011;8275;48.206;16.340;2023-08-01T13:16:12;7.30;;;4.10;;
16330;SDS011;8275;48.206;16.340;2023-08-01T13:18:41;5.57;;;4.43;;
16330;SDS011;8275;48.206;16.340;2023-08-01T13:21:12;5.55;;;4.43;;
16330;SDS011;8275;48.206;16.340;2023-08-01T13:23:41;7.05;;;4.40;;
16330;SDS011;8275;48.206;16.340;2023-08-01T13:26:10;5.95;;;5.03;;
16330;SDS011;8275;48.206;16.340;2023-08-01T13:28:40;6.05;;;4.95;;
16330;SDS011;8275;48.206;16.340;2023-08-01T13:31:08;9.15;;;4.45;;
16330;SDS011;8275;48.206;16.340;2023-08-01T13:33:37;7.10;;;4.22;;
16330;SDS011;8275;48.206;16.340;2023-08-01T13:36:05;5.38;;;4.88;;
16330;SDS011;8275;48.206;16.340;2023-08-01T13:38:34;4.55;;;4.15;;
16330;SDS011;8275;48.206;16.340;2023-08-01T13:41:02;5.55;;;4.90;;
16330;SDS011;8275;48.206;16.340;2023-08-01T13:43:32;5.30;;;4.35;;
16330;SDS011;8275;48.206;16.340;2023-08-01T13:46:07;5.13;;;3.95;;
16330;SDS011;8275;48.206;16.340;2023-08-01T13:48:54;6.60;;;4.82;;
16330;SDS011;8275;48.206;16.340;2023-08-01T13:51:23;8.90;;;6.45;;
16330;SDS011;8275;48.206;16.340;2023-08-01T13:53:51;5.68;;;5.18;;
16330;SDS011;8275;48.206;16.340;2023-08-01T13:56:21;5.57;;;4.88;;
16330;SDS011;8275;48.206;16.340;2023-08-01T13:58:50;4.63;;;4.05;;
16330;SDS011;8275;48.206;16.340;2023-08-01T14:01:20;5.90;;;4.72;;
16330;SDS011;8275;48.206;16.340;2023-08-01T14:03:49;6.05;;;5.32;;
16330;SDS011;8275;48.206;16.340;2023-08-01T14:06:17;4.80;;;4.35;;
16330;SDS011;8275;48.206;16.340;2023-08-01T14:08:46;5.53;;;4.97;;
16330;SDS011;8275;48.206;16.340;2023-08-01T14:11:15;5.57;;;4.57;;
16330;SDS011;8275;48.206;16.340;2023-08-01T14:13:45;9.27;;;8.27;;
16330;SDS011;8275;48.206;16.340;2023-08-01T14:16:14;7.97;;;6.03;;
16330;SDS011;8275;48.206;16.340;2023-08-01T14:18:44;7.57;;;5.38;;
16330;SDS011;8275;48.206;16.340;2023-08-01T14:21:13;12.35;;;6.40;;
16330;SDS011;8275;48.206;16.340;2023-08-01T14:23:41;6.50;;;5.53;;
16330;SDS011;8275;48.206;16.340;2023-08-01T14:26:10;13.55;;;5.90;;
16330;SDS011;8275;48.206;16.340;2023-08-01T14:28:38;8.73;;;6.25;;
16330;SDS011;8275;48.206;16.340;2023-08-01T14:31:07;7.88;;;5.18;;
16330;SDS011;8275;48.206;16.340;2023-08-01T14:33:35;6.65;;;4.97;;
16330;SDS011;8275;48.206;16.340;2023-08-01T14:36:08;9.75;;;4.85;;
16330;SDS011;8275;48.206;16.340;2023-08-01T14:38:39;5.75;;;4.43;;
16330;SDS011;8275;48.206;16.340;2023-08-01T14:41:07;4.95;;;4.55;;
16330;SDS011;8275;48.206;16.340;2023-08-01T14:43:56;6.55;;;5.03;;
16330;SDS011;8275;48.206;16.340;2023-08-01T14:46:24;5.40;;;4.85;;
16330;SDS011;8275;48.206;16.340;2023-08-01T14:48:53;6.07;;;4.68;;
16330;SDS011;8275;48.206;16.340;2023-08-01T14:51:23;6.85;;;6.25;;
16330;SDS011;8275;48.206;16.340;2023-08-01T14:53:51;6.18;;;5.60;;
16330;SDS011;8275;48.206;16.340;2023-08-01T14:56:20;7.95;;;5.75;;
16330;SDS011;8275;48.206;16.340;2023-08-01T14:58:49;5.32;;;4.82;;
16330;SDS011;8275;48.206;16.340;2023-08-01T15:01:17;6.43;;;4.38;;
16330;SDS011;8275;48.206;16.340;2023-08-01T15:03:46;6.05;;;5.15;;